Time;durP1;ratioP1;P1;durP2;ratioP2;P2;SDS_P1;SDS_P2;PMS_P1;PMS_P2;Temp;Humidity;BMP_temperature;BMP_pressure;BME280_temperature;BME280_humidity;BME280_pressure;Samples;Min_cycle;Max_cycle;Signal;HPM_P1;HPM_P2
2023/01/01 00:00:54;;;;;;;;;;;;;;;11.68;90.45;100647.25;5023452;28;19955;-79
2023/01/01 00:03:19;;;;;;;;;;;;;;;11.68;91.28;100654.28;5031566;28;20263;-79
2023/01/01 00:05:44;;;;;;;;;;;;;;;11.68;91.03;100647.25;5025091;28;19926;-79
2023/01/01 00:08:09;;;;;;;;;;;;;;;11.67;91.01;100665.69;5025370;28;20061;-79
2023/01/01 00:10:36;;;;;;;;;;;;;;;11.68;90.34;100656.91;5022860;28;19992;-79
2023/01/01 00:13:01;;;;;;;;;;;;;;;11.69;91.63;100658.56;5030148;28;20184;-79
2023/01/01 00:15:26;;;;;;;;;;;;;;;11.69;91.99;100658.56;5034004;28;19926;-79
2023/01/01 00:17:52;;;;;;;;;;;;;;;11.70;91.35;100669.00;5018506;28;20224;-79
2023/01/01 00:20:17;;;;;;;;;;;;;;;11.68;90.78;100673.47;5015858;28;20258;-79
2023/01/01 00:22:42;;;;;;;;;;;;;;;11.68;90.12;100670.84;5024132;28;19917;-79
2023/01/01 00:25:10;;;;;;;;;;;;;;;11.70;91.16;100660.28;5024794;28;19936;-79
2023/01/01 00:27:35;;;;;;;;;;;;;;;11.69;90.31;100655.94;5028336;28;19917;-79
2023/01/01 00:30:00;;;;;;;;;;;;;;;11.69;91.34;100662.03;5022248;28;19971;-79
2023/01/01 00:32:26;;;;;;;;;;;;;;;11.71;90.24;100654.97;5017222;28;20221;-79
2023/01/01 00:34:51;;;;;;;;;;;;;;;11.69;90.84;100641.06;5031706;28;20500;-79
2023/01/01 00:37:17;;;;;;;;;;;;;;;11.69;91.09;100664.66;5017273;28;20263;-79
2023/01/01 00:39:42;;;;;;;;;;;;;;;11.68;90.40;100665.59;5021658;28;20223;-79
2023/01/01 00:42:08;;;;;;;;;;;;;;;11.68;90.91;100657.72;5016801;28;19922;-79
2023/01/01 00:44:33;;;;;;;;;;;;;;;11.68;91.43;100655.13;5017329;28;20221;-79
2023/01/01 00:46:58;;;;;;;;;;;;;;;11.66;91.21;100651.72;5018458;28;19925;-79
2023/01/01 00:49:23;;;;;;;;;;;;;;;11.67;91.04;100663.06;5026602;28;20239;-79
2023/01/01 00:51:48;;;;;;;;;;;;;;;11.66;90.16;100659.59;5024031;28;19944;-79
2023/01/01 00:54:14;;;;;;;;;;;;;;;11.65;90.73;100652.63;5028078;28;20217;-79
2023/01/01 00:56:39;;;;;;;;;;;;;;;11.65;90.16;100642.13;5026247;28;19968;-79
2023/01/01 00:59:04;;;;;;;;;;;;;;;11.66;90.90;100648.22;5027016;28;19925;-79
2023/01/01 01:01:30;;;;;;;;;;;;;;;11.66;90.73;100662.22;5032790;28;20000;-79
2023/01/01 01:03:55;;;;;;;;;;;;;;;11.66;91.10;100656.97;5017676;28;19935;-79
2023/01/01 01:06:21;;;;;;;;;;;;;;;11.65;89.56;100663.13;5016632;28;19924;-79
2023/01/01 01:08:46;;;;;;;;;;;;;;;11.67;90.59;100671.75;5015916;28;19984;-79
2023/01/01 01:11:16;;;;;;;;;;;;;;;11.66;nan;100667.47;5020946;28;20032;-79
2023/01/01 01:13:42;;;;;;;;;;;;;;;11.67;89.15;100681.41;5014929;28;19917;-79
2023/01/01 01:16:08;;;;;;;;;;;;;;;11.69;89.41;100682.19;5018882;28;19948;-79
2023/01/01 01:18:34;;;;;;;;;;;;;;;11.69;89.48;100674.31;5021004;28;20216;-80
2023/01/01 01:20:59;;;;;;;;;;;;;;;11.70;90.67;100679.50;5023704;28;19979;-79
2023/01/01 01:23:24;;;;;;;;;;;;;;;11.71;90.51;100672.47;5020599;28;19929;-79
2023/01/01 01:25:49;;;;;;;;;;;;;;;11.69;90.23;100675.16;5025382;28;19929;-79
2023/01/01 01:28:15;;;;;;;;;;;;;;;11.70;90.76;100679.50;5023733;28;19950;-79
2023/01/01 01:30:40;;;;;;;;;;;;;;;11.71;90.03;100680.34;5029995;28;19954;-79
2023/01/01 01:33:05;;;;;;;;;;;;;;;11.71;90.32;100680.34;5024837;28;19928;-79
2023/01/01 01:35:32;;;;;;;;;;;;;;;11.71;89.27;100696.94;5024527;28;20240;-79
2023/01/01 01:37:57;;;;;;;;;;;;;;;11.72;90.96;100685.50;5025854;28;19924;-79
2023/01/01 01:40:22;;;;;;;;;;;;;;;11.71;90.92;100677.72;5023127;28;19921;-79
2023/01/01 01:42:49;;;;;;;;;;;;;;;11.70;90.76;100705.72;5026456;28;19971;-80
2023/01/01 01:45:15;;;;;;;;;;;;;;;11.69;90.19;100698.75;5025946;28;19928;-79
2023/01/01 01:47:57;;;;;;;;;;;;;;;11.71;90.20;100703.94;5021523;28;19920;-80
2023/01/01 01:50:33;;;;;;;;;;;;;;;11.70;89.14;100695.22;5034999;28;20228;-80
2023/01/01 01:53:05;;;;;;;;;;;;;;;11.69;89.83;100714.50;5028698;28;19924;-79
2023/01/01 01:55:32;;;;;;;;;;;;;;;11.70;90.55;100710.97;5024653;28;19928;-80
2023/01/01 01:57:58;;;;;;;;;;;;;;;11.71;90.50;100722.31;5027799;28;19955;-80
2023/01/01 02:00:23;;;;;;;;;;;;;;;11.70;90.37;100726.72;5033562;28;19921;-80
2023/01/01 02:03:17;;;;;;;;;;;;;;;11.71;90.67;100717.94;4856194;28;21461;-79
2023/01/01 02:05:43;;;;;;;;;;;;;;;11.70;89.58;100739.84;5023070;28;20137;-80
2023/01/01 02:08:09;;;;;;;;;;;;;;;11.70;89.18;100731.97;5022678;28;19914;-80
2023/01/01 02:10:34;;;;;;;;;;;;;;;11.69;89.42;100719.75;5019383;28;20205;-80
2023/01/01 02:12:59;;;;;;;;;;;;;;;11.71;89.94;100725.81;5021939;28;19920;-81
2023/01/01 02:15:28;;;;;;;;;;;;;;;11.71;89.79;100738.06;5016521;28;19921;-80
2023/01/01 02:18:02;;;;;;;;;;;;;;;11.70;89.98;100745.06;5024183;28;19974;-80
2023/01/01 02:20:39;;;;;;;;;;;;;;;11.70;89.73;100731.13;5016396;28;20113;-80
2023/01/01 02:23:10;;;;;;;;;;;;;;;11.69;89.30;100740.75;5027936;28;20011;-81
2023/01/01 02:25:43;;;;;;;;;;;;;;;11.69;89.46;100742.53;5035633;28;20243;-80
2023/01/01 02:28:44;;;;;;;;;;;;;;;11.67;89.64;100744.38;5036471;28;19923;-80
2023/01/01 02:31:14;;;;;;;;;;;;;;;11.66;89.39;100748.78;4993856;28;20008;-81
2023/01/01 02:33:41;;;;;;;;;;;;;;;11.66;90.83;100754.03;5027111;28;20282;-80
2023/01/01 02:36:08;;;;;;;;;;;;;;;11.63;90.16;100746.28;5031613;28;19980;-80
2023/01/01 02:38:40;;;;;;;;;;;;;;;11.63;90.37;100743.66;5016201;28;20141;-80
2023/01/01 02:41:09;;;;;;;;;;;;;;;11.61;89.76;100763.88;5016005;28;20167;-80
2023/01/01 02:43:34;;;;;;;;;;;;;;;11.60;88.65;100751.66;5014332;28;19922;-80
2023/01/01 02:46:04;;;;;;;;;;;;;;;11.61;88.32;100756.00;5014987;28;20004;-81
2023/01/01 02:48:38;;;;;;;;;;;;;;;11.62;88.67;100755.06;5014780;28;19980;-80
2023/01/01 02:51:10;;;;;;;;;;;;;;;11.63;89.25;100738.41;5014621;28;19925;-80
2023/01/01 02:53:37;;;;;;;;;;;;;;;11.64;88.46;100755.88;5015936;28;19909;-80
2023/01/01 02:56:05;;;;;;;;;;;;;;;11.65;88.19;100760.19;5015903;28;20216;-80
2023/01/01 03:01:41;;;;;;;;;;;;;;;11.67;89.97;100767.97;5036086;28;19947;-80
2023/01/01 03:04:21;;;;;;;;;;;;;;;11.67;89.54;100781.94;5015725;28;20212;-80
2023/01/01 03:07:05;;;;;;;;;;;;;;;11.68;89.36;100767.06;5035489;28;20232;-80
2023/01/01 03:09:36;;;;;;;;;;;;;;;11.68;90.67;100778.41;5035550;28;19909;-80
2023/01/01 03:12:06;;;;;;;;;;;;;;;11.69;89.62;100795.81;5035698;28;19995;-80
2023/01/01 03:14:41;;;;;;;;;;;;;;;11.69;89.07;100795.81;5035538;28;19951;-80
2023/01/01 03:17:27;;;;;;;;;;;;;;;11.71;89.28;100812.38;5035347;28;19917;-80
2023/01/01 03:19:55;;;;;;;;;;;;;;;11.72;91.58;100808.81;5027391;28;19980;-80
2023/01/01 03:22:23;;;;;;;;;;;;;;;11.70;91.82;100813.28;5035347;28;20020;-80
2023/01/01 03:25:01;;;;;;;;;;;;;;;11.69;92.63;100813.34;5033795;28;19929;-80
2023/01/01 03:27:32;;;;;;;;;;;;;;;11.69;93.03;100836.97;5035048;28;19940;-80
2023/01/01 03:30:00;;;;;;;;;;;;;;;11.67;91.31;100812.56;5034526;28;19909;-80
2023/01/01 03:32:59;;;;;;;;;;;;;;;11.67;91.68;100823.91;5039102;28;19932;-80
2023/01/01 03:35:14;;;;;;;;;;;;;;;11.67;91.57;100841.44;5038980;28;20366;-80
2023/01/01 03:37:41;;;;;;;;;;;;;;;11.66;91.67;100840.59;5037522;28;19917;-80
2023/01/01 03:40:08;;;;;;;;;;;;;;;11.68;89.07;100851.00;5038864;28;20007;-80
2023/01/01 03:42:53;;;;;;;;;;;;;;;11.70;89.58;100836.91;5020788;28;19921;-80
2023/01/01 03:45:22;;;;;;;;;;;;;;;11.72;89.67;100834.22;5025093;28;20217;-80
2023/01/01 03:47:47;;;;;;;;;;;;;;;11.73;86.90;100859.50;5020039;28;19917;-80
2023/01/01 03:50:13;;;;;;;;;;;;;;;11.71;87.56;100856.97;5027359;28;19919;-80
2023/01/01 03:52:47;;;;;;;;;;;;;;;11.71;89.11;100849.09;5039598;28;19910;-80
2023/01/01 03:55:22;;;;;;;;;;;;;;;11.72;85.97;100858.66;5037475;28;20235;-79
2023/01/01 03:58:02;;;;;;;;;;;;;;;11.70;87.73;100855.25;5035314;28;19921;-80
2023/01/01 04:00:30;;;;;;;;;;;;;;;11.70;89.59;100854.41;5029276;28;20227;-80
2023/01/01 04:02:59;;;;;;;;;;;;;;;11.66;89.70;100866.81;5040214;28;19916;-80
2023/01/01 04:05:25;;;;;;;;;;;;;;;11.64;90.55;100875.66;5026431;28;20196;-80
2023/01/01 04:07:51;;;;;;;;;;;;;;;11.61;90.66;100871.41;5018349;28;20159;-80
2023/01/01 04:10:17;;;;;;;;;;;;;;;11.59;90.44;100883.75;5018603;28;20231;-80
2023/01/01 04:12:44;;;;;;;;;;;;;;;11.58;90.31;100904.78;5019438;28;19917;-80
2023/01/01 04:15:09;;;;;;;;;;;;;;;11.56;90.48;100880.41;5019632;28;20223;-80
2023/01/01 04:17:34;;;;;;;;;;;;;;;11.54;91.42;100885.72;5019088;28;19918;-80
2023/01/01 04:19:59;;;;;;;;;;;;;;;11.53;92.97;100891.88;5018399;28;19922;-80
2023/01/01 04:22:25;;;;;;;;;;;;;;;11.50;90.79;100900.75;5020305;28;19921;-80
2023/01/01 04:24:50;;;;;;;;;;;;;;;11.48;90.96;100897.34;5019166;28;19917;-80
2023/01/01 04:27:15;;;;;;;;;;;;;;;11.48;92.85;100894.72;5019614;28;19922;-81
2023/01/01 04:29:40;;;;;;;;;;;;;;;11.45;93.33;100918.44;5020429;28;19928;-80
2023/01/01 04:32:06;;;;;;;;;;;;;;;11.44;93.72;100927.25;5019216;28;19921;-80
2023/01/01 04:34:31;;;;;;;;;;;;;;;11.42;93.88;100926.41;5020227;28;19918;-80
2023/01/01 04:36:56;;;;;;;;;;;;;;;11.41;93.75;100944.88;5025409;28;19995;-80
2023/01/01 04:39:21;;;;;;;;;;;;;;;11.40;94.15;100945.78;5027866;28;19918;-80
2023/01/01 04:41:47;;;;;;;;;;;;;;;11.38;93.85;100945.00;5037133;28;20101;-80
2023/01/01 04:44:12;;;;;;;;;;;;;;;11.37;93.92;100951.13;5039103;28;19917;-80
2023/01/01 04:46:37;;;;;;;;;;;;;;;11.34;93.23;100952.13;5038130;28;19917;-80
2023/01/01 04:49:02;;;;;;;;;;;;;;;11.32;93.28;100957.44;5038517;28;19925;-80
2023/01/01 04:51:28;;;;;;;;;;;;;;;11.32;94.03;100943.47;5024246;28;19917;-80
2023/01/01 04:53:53;;;;;;;;;;;;;;;11.31;94.10;100947.00;5006627;28;19917;-80
2023/01/01 04:56:19;;;;;;;;;;;;;;;11.30;93.75;100953.19;5028653;28;19918;-80
2023/01/01 04:58:45;;;;;;;;;;;;;;;11.27;93.99;100961.16;5019859;28;19920;-80
2023/01/01 05:01:29;;;;;;;;;;;;;;;11.26;92.48;100964.69;5027693;28;19921;-80
2023/01/01 05:03:55;;;;;;;;;;;;;;;11.26;92.48;100959.44;5037305;28;19917;-80
2023/01/01 05:06:21;;;;;;;;;;;;;;;11.23;93.08;100963.06;5030211;28;20149;-80
2023/01/01 05:08:47;;;;;;;;;;;;;;;11.23;93.28;100972.72;5019651;28;19925;-80
2023/01/01 05:11:17;;;;;;;;;;;;;;;11.22;92.74;100987.56;5024204;28;19948;-80
2023/01/01 05:13:44;;;;;;;;;;;;;;;11.19;89.88;100987.72;5038715;28;19921;-80
2023/01/01 05:16:11;;;;;;;;;;;;;;;11.20;91.17;100983.31;5035133;28;19921;-80
2023/01/01 05:18:37;;;;;;;;;;;;;;;11.19;92.06;100977.22;5019281;28;19925;-80
2023/01/01 05:21:03;;;;;;;;;;;;;;;11.16;90.47;100982.59;5019553;28;20021;-80
2023/01/01 05:23:29;;;;;;;;;;;;;;;11.14;90.06;100976.56;5037422;28;20267;-80
2023/01/01 05:25:54;;;;;;;;;;;;;;;11.15;92.21;100978.25;5038792;28;19925;-80
2023/01/01 05:28:20;;;;;;;;;;;;;;;11.11;90.56;100990.66;5020616;28;19956;-80
2023/01/01 05:30:45;;;;;;;;;;;;;;;11.10;91.27;100994.16;5018627;28;20108;-80
2023/01/01 05:33:11;;;;;;;;;;;;;;;11.11;92.36;100981.91;5020706;28;19917;-80
2023/01/01 05:35:36;;;;;;;;;;;;;;;11.08;92.62;100985.53;5037052;28;19962;-80
2023/01/01 05:38:03;;;;;;;;;;;;;;;11.07;92.07;101006.56;5037613;28;20160;-80
2023/01/01 05:40:29;;;;;;;;;;;;;;;11.04;90.82;101017.16;5019569;28;20189;-80
2023/01/01 05:42:54;;;;;;;;;;;;;;;11.04;90.80;101020.63;5019098;28;19920;-80
2023/01/01 05:45:19;;;;;;;;;;;;;;;11.05;92.69;101034.59;5017176;28;19928;-80
2023/01/01 05:47:44;;;;;;;;;;;;;;;11.03;93.31;101032.03;5038028;28;19917;-80
2023/01/01 05:50:10;;;;;;;;;;;;;;;11.01;92.02;101039.09;5009902;28;20120;-80
2023/01/01 05:52:35;;;;;;;;;;;;;;;11.01;91.99;101046.97;5036570;28;19925;-79
2023/01/01 05:55:00;;;;;;;;;;;;;;;10.99;91.10;101043.56;5033343;28;19917;-80
2023/01/01 05:57:29;;;;;;;;;;;;;;;10.98;91.04;101048.84;5038306;28;20155;-80
2023/01/01 05:59:54;;;;;;;;;;;;;;;10.98;92.83;101040.97;5035505;28;19927;-80
2023/01/01 06:02:19;;;;;;;;;;;;;;;10.97;92.21;101039.25;5026120;28;19956;-80
2023/01/01 06:04:45;;;;;;;;;;;;;;;10.98;93.98;101038.38;5018088;28;20259;-80
2023/01/01 06:07:10;;;;;;;;;;;;;;;10.95;93.07;101047.19;5019959;28;19929;-80
2023/01/01 06:09:35;;;;;;;;;;;;;;;10.93;91.08;101042.03;5027815;28;19947;-80
2023/01/01 06:12:01;;;;;;;;;;;;;;;10.92;91.44;101048.16;5018926;28;19917;-80
2023/01/01 06:14:26;;;;;;;;;;;;;;;10.92;92.83;101055.19;5018678;28;19913;-80
2023/01/01 06:16:51;;;;;;;;;;;;;;;10.89;90.97;101064.00;5000764;28;19984;-80
2023/01/01 06:19:17;;;;;;;;;;;;;;;10.89;91.93;101082.34;5017384;28;19917;-80
2023/01/01 06:21:42;;;;;;;;;;;;;;;10.88;91.80;101070.16;5023140;28;19921;-80
2023/01/01 06:24:07;;;;;;;;;;;;;;;10.88;93.04;101078.03;5019032;28;20004;-80
2023/01/01 06:26:32;;;;;;;;;;;;;;;10.87;92.48;101078.91;5031949;28;19978;-80
2023/01/01 06:28:58;;;;;;;;;;;;;;;10.85;92.33;101083.38;5033418;28;20279;-80
2023/01/01 06:31:24;;;;;;;;;;;;;;;10.85;92.87;101093.84;5029525;28;19920;-80
2023/01/01 06:33:49;;;;;;;;;;;;;;;10.83;91.25;101087.81;5036651;28;19925;-80
2023/01/01 06:36:16;;;;;;;;;;;;;;;10.83;92.05;101090.44;5025922;28;20196;-80
2023/01/01 06:38:43;;;;;;;;;;;;;;;10.82;91.97;101090.50;5017886;28;20181;-80
2023/01/01 06:41:13;;;;;;;;;;;;;;;10.78;90.57;101076.66;5026862;28;19928;-80
2023/01/01 06:43:39;;;;;;;;;;;;;;;10.79;91.87;101094.09;5023812;28;19925;-80
2023/01/01 06:46:12;;;;;;;;;;;;;;;10.78;91.61;101115.09;5024207;28;19975;-80
2023/01/01 06:48:38;;;;;;;;;;;;;;;10.77;91.42;101106.41;5037217;28;20226;-80
2023/01/01 06:51:04;;;;;;;;;;;;;;;10.76;91.35;101118.63;5019301;28;19991;-80
2023/01/01 06:53:30;;;;;;;;;;;;;;;10.75;90.62;101129.16;5019331;28;19991;-80
2023/01/01 06:55:55;;;;;;;;;;;;;;;10.74;91.74;101128.31;5019543;28;20157;-80
2023/01/01 06:58:20;;;;;;;;;;;;;;;10.73;92.63;101133.59;5037487;28;19932;-80
2023/01/01 07:00:46;;;;;;;;;;;;;;;10.71;90.91;101124.94;5034632;28;19921;-80
2023/01/01 07:03:11;;;;;;;;;;;;;;;10.71;92.17;101141.53;5021101;28;20945;-80
2023/01/01 07:05:36;;;;;;;;;;;;;;;10.70;92.10;101145.06;5035801;28;19929;-80
2023/01/01 07:08:02;;;;;;;;;;;;;;;10.69;92.03;101158.19;5020261;28;19925;-80
2023/01/01 07:10:27;;;;;;;;;;;;;;;10.68;92.46;101159.13;5017763;28;20141;-80
2023/01/01 07:12:52;;;;;;;;;;;;;;;10.68;92.66;101157.34;5029447;28;19925;-80
2023/01/01 07:15:17;;;;;;;;;;;;;;;10.67;93.65;101160.88;5016869;28;19922;-81
2023/01/01 07:17:43;;;;;;;;;;;;;;;10.67;92.93;101160.03;5028441;28;20282;-80
2023/01/01 07:20:08;;;;;;;;;;;;;;;10.64;91.32;101181.09;5036339;28;19992;-80
2023/01/01 07:22:34;;;;;;;;;;;;;;;10.63;91.40;101198.56;5009804;28;19933;-80
2023/01/01 07:24:59;;;;;;;;;;;;;;;10.63;92.55;101175.00;5035156;28;20136;-80
2023/01/01 07:27:25;;;;;;;;;;;;;;;10.61;91.73;101197.78;5017901;28;19932;-80
2023/01/01 07:29:50;;;;;;;;;;;;;;;10.62;92.58;101193.38;5027398;28;19956;-80
2023/01/01 07:32:15;;;;;;;;;;;;;;;10.62;93.50;101203.84;5030347;28;19964;-80
2023/01/01 07:34:40;;;;;;;;;;;;;;;10.59;92.13;101219.66;5032883;28;19914;-80
2023/01/01 07:37:06;;;;;;;;;;;;;;;10.57;92.32;101225.00;5037366;28;19913;-80
2023/01/01 07:39:31;;;;;;;;;;;;;;;10.56;92.75;101231.97;5028778;28;19917;-80
2023/01/01 07:41:56;;;;;;;;;;;;;;;10.55;92.64;101230.28;5034677;28;20185;-80
2023/01/01 07:44:22;;;;;;;;;;;;;;;10.53;91.21;101239.06;5025323;28;20208;-80
2023/01/01 07:46:47;;;;;;;;;;;;;;;10.52;91.58;101237.38;5019525;28;20283;-80
2023/01/01 07:49:12;;;;;;;;;;;;;;;10.52;91.84;101247.84;5017085;28;19932;-80
2023/01/01 07:51:37;;;;;;;;;;;;;;;10.50;91.43;101247.06;5017731;28;20182;-80
2023/01/01 07:54:03;;;;;;;;;;;;;;;10.47;90.69;101258.47;5017679;28;19929;-80
2023/01/01 07:56:28;;;;;;;;;;;;;;;10.46;90.56;101256.78;5022101;28;19925;-80
2023/01/01 07:58:53;;;;;;;;;;;;;;;10.46;90.81;101256.78;5037059;28;19920;-80
2023/01/01 08:01:19;;;;;;;;;;;;;;;10.43;89.33;101264.72;5030612;28;19932;-80
2023/01/01 08:03:48;;;;;;;;;;;;;;;10.43;90.38;101259.50;5035832;28;20232;-80
2023/01/01 08:06:14;;;;;;;;;;;;;;;10.41;89.24;101277.00;5035834;28;19917;-80
2023/01/01 08:08:39;;;;;;;;;;;;;;;10.41;89.93;101281.41;5016837;28;19928;-80
2023/01/01 08:11:05;;;;;;;;;;;;;;;10.41;91.36;101271.78;5018307;28;19917;-80
2023/01/01 08:13:31;;;;;;;;;;;;;;;10.39;90.11;101281.44;5030479;28;20202;-80
2023/01/01 08:15:56;;;;;;;;;;;;;;;10.41;92.17;101281.41;5022580;28;20303;-80
2023/01/01 08:18:22;;;;;;;;;;;;;;;10.40;92.75;101284.91;5028772;28;19921;-80
2023/01/01 08:20:47;;;;;;;;;;;;;;;10.38;92.70;101285.81;5025714;28;19917;-80
2023/01/01 08:23:12;;;;;;;;;;;;;;;10.37;91.21;101288.50;5024230;28;19925;-80
2023/01/01 08:25:37;;;;;;;;;;;;;;;10.36;90.73;101289.38;5019213;28;19922;-80
2023/01/01 08:28:03;;;;;;;;;;;;;;;10.34;90.25;101283.34;5019439;28;20021;-80
2023/01/01 08:30:28;;;;;;;;;;;;;;;10.34;90.99;101281.59;5020607;28;19922;-80
2023/01/01 08:32:53;;;;;;;;;;;;;;;10.33;90.56;101286.88;5019456;28;19964;-80
2023/01/01 08:35:18;;;;;;;;;;;;;;;10.33;90.51;101289.47;5025941;28;20121;-80
2023/01/01 08:37:44;;;;;;;;;;;;;;;10.33;91.04;101292.97;5033844;28;20163;-80
2023/01/01 08:40:11;;;;;;;;;;;;;;;10.32;90.95;101295.63;5034622;28;20106;-80
2023/01/01 08:42:36;;;;;;;;;;;;;;;10.33;91.59;101310.44;5029293;28;19921;-80
2023/01/01 08:45:01;;;;;;;;;;;;;;;10.30;91.12;101306.13;5019400;28;19917;-80
2023/01/01 08:47:26;;;;;;;;;;;;;;;10.30;90.55;101310.50;5011386;28;19925;-80
2023/01/01 08:49:52;;;;;;;;;;;;;;;10.31;91.13;101314.84;5033488;28;20191;-80
2023/01/01 08:52:18;;;;;;;;;;;;;;;10.29;90.76;101311.41;5034606;28;19921;-80
2023/01/01 08:54:43;;;;;;;;;;;;;;;10.28;90.65;101320.19;5033408;28;20235;-80
2023/01/01 08:57:08;;;;;;;;;;;;;;;10.28;90.88;101328.03;5035856;28;19932;-80
2023/01/01 08:59:34;;;;;;;;;;;;;;;10.28;91.49;101328.03;5029010;28;19917;-80
2023/01/01 09:01:59;;;;;;;;;;;;;;;10.26;90.88;101333.31;5029280;28;19925;-80
2023/01/01 09:04:24;;;;;;;;;;;;;;;10.26;91.45;101333.31;5028125;28;20015;-80
2023/01/01 09:06:50;;;;;;;;;;;;;;;10.25;89.96;101336.81;5024248;28;19929;-80
2023/01/01 09:09:15;;;;;;;;;;;;;;;10.26;91.00;101335.94;5028869;28;19956;-80
2023/01/01 09:11:48;;;;;;;;;;;;;;;10.26;91.11;101333.31;5021939;28;20229;-80
2023/01/01 09:14:13;;;;;;;;;;;;;;;10.26;90.95;101329.81;5027574;28;20039;-80
2023/01/01 09:16:39;;;;;;;;;;;;;;;10.25;90.14;101330.75;5027884;28;20268;-80
2023/01/01 09:19:04;;;;;;;;;;;;;;;10.26;90.93;101329.81;5024544;28;19929;-80
2023/01/01 09:21:29;;;;;;;;;;;;;;;10.26;91.18;101328.06;5028397;28;20280;-80
2023/01/01 09:23:54;;;;;;;;;;;;;;;10.25;91.07;101323.75;5031233;28;19933;-80
2023/01/01 09:26:20;;;;;;;;;;;;;;;10.26;91.88;101333.31;5025103;28;20214;-80
2023/01/01 09:28:45;;;;;;;;;;;;;;;10.27;92.01;101335.00;5036304;28;19945;-80
2023/01/01 09:31:10;;;;;;;;;;;;;;;10.25;91.75;101326.34;5031146;28;20285;-80
2023/01/01 09:33:35;;;;;;;;;;;;;;;10.26;90.88;101325.47;5027016;28;19925;-80
2023/01/01 09:36:30;;;;;;;;;;;;;;;10.27;91.03;101334.16;5017438;28;19997;-80
2023/01/01 09:38:56;;;;;;;;;;;;;;;10.27;91.38;101336.78;5026245;28;19921;-80
2023/01/01 09:41:32;;;;;;;;;;;;;;;10.28;92.45;101347.22;5008296;28;20117;-80
2023/01/01 09:44:16;;;;;;;;;;;;;;;10.28;92.20;101347.22;5017486;28;19999;-80
2023/01/01 09:46:42;;;;;;;;;;;;;;;10.29;92.22;101358.53;5030093;28;19921;-80
2023/01/01 09:49:16;;;;;;;;;;;;;;;10.29;92.55;101353.28;5032748;28;19928;-80
2023/01/01 09:51:42;;;;;;;;;;;;;;;10.29;92.15;101369.00;5022490;28;19914;-80
2023/01/01 09:54:20;;;;;;;;;;;;;;;10.29;92.14;101364.63;5017472;28;19964;-80
2023/01/01 09:56:45;;;;;;;;;;;;;;;10.30;92.29;101368.09;5027433;28;19928;-80
2023/01/01 09:59:10;;;;;;;;;;;;;;;10.30;92.30;101373.34;5033040;28;19925;-80
2023/01/01 10:01:48;;;;;;;;;;;;;;;10.31;92.74;101385.53;5017285;28;19928;-80
2023/01/01 10:04:32;;;;;;;;;;;;;;;10.31;93.17;101383.78;5018191;28;19925;-80
2023/01/01 10:07:00;;;;;;;;;;;;;;;10.31;93.33;101390.78;5019749;28;19925;-80
2023/01/01 10:09:33;;;;;;;;;;;;;;;10.31;93.29;101382.94;5024958;28;20266;-80
2023/01/01 10:12:17;;;;;;;;;;;;;;;10.31;93.57;101362.84;5026015;28;19921;-80
2023/01/01 10:14:44;;;;;;;;;;;;;;;10.33;94.29;101368.03;5027170;28;19917;-80
2023/01/01 10:17:18;;;;;;;;;;;;;;;10.32;94.50;101355.84;5026043;28;19932;-80
2023/01/01 10:19:51;;;;;;;;;;;;;;;10.32;94.17;101359.31;5025121;28;20007;-80
2023/01/01 10:22:26;;;;;;;;;;;;;;;10.34;94.64;101343.56;5022452;28;19921;-80
2023/01/01 10:24:58;;;;;;;;;;;;;;;10.36;95.14;101347.00;5025262;28;20425;-80
2023/01/01 10:27:26;;;;;;;;;;;;;;;10.37;95.89;101348.72;5023439;28;19974;-80
2023/01/01 10:29:51;;;;;;;;;;;;;;;10.36;96.04;101333.91;5025687;28;19913;-80
2023/01/01 10:32:17;;;;;;;;;;;;;;;10.37;95.92;101338.25;5022069;28;20329;-80
2023/01/01 10:34:42;;;;;;;;;;;;;;;10.40;96.25;101350.38;5030178;28;19921;-80
2023/01/01 10:37:08;;;;;;;;;;;;;;;10.42;96.47;101367.72;5021784;28;19921;-80
2023/01/01 10:39:34;;;;;;;;;;;;;;;10.44;96.74;101388.63;5021892;28;20204;-80
2023/01/01 10:42:00;;;;;;;;;;;;;;;10.46;96.91;101384.22;5022673;28;20155;-80
2023/01/01 10:44:28;;;;;;;;;;;;;;;10.47;97.12;101388.56;5016437;28;19925;-80
2023/01/01 10:46:56;;;;;;;;;;;;;;;10.48;97.10;101393.75;5015906;28;19909;-80
2023/01/01 10:49:21;;;;;;;;;;;;;;;10.49;97.49;101395.44;5016286;28;19979;-80
2023/01/01 10:51:48;;;;;;;;;;;;;;;10.51;96.95;101409.38;5005650;28;20235;-80
2023/01/01 10:54:28;;;;;;;;;;;;;;;10.52;97.04;101415.47;5034463;28;19921;-80
2023/01/01 10:56:53;;;;;;;;;;;;;;;10.55;97.47;101412.72;5026732;28;20140;-80
2023/01/01 10:59:36;;;;;;;;;;;;;;;10.56;97.48;101399.59;5014336;28;20160;-80
2023/01/01 11:02:15;;;;;;;;;;;;;;;10.59;97.33;101408.25;5023100;28;20247;-80
2023/01/01 11:04:40;;;;;;;;;;;;;;;10.59;96.93;101419.59;5033313;28;19932;-80
2023/01/01 11:07:06;;;;;;;;;;;;;;;10.59;96.80;101414.34;5029508;28;19921;-80
2023/01/01 11:09:35;;;;;;;;;;;;;;;10.61;96.92;101427.41;5015577;28;19918;-80
2023/01/01 11:12:02;;;;;;;;;;;;;;;10.61;97.07;101424.78;5019406;28;19917;-80
2023/01/01 11:14:29;;;;;;;;;;;;;;;10.61;97.02;101419.56;5035332;28;19984;-80
2023/01/01 11:16:55;;;;;;;;;;;;;;;10.61;96.63;101430.88;5034848;28;19917;-80
2023/01/01 11:19:20;;;;;;;;;;;;;;;10.61;96.96;101430.88;5035621;28;19968;-80
2023/01/01 11:21:46;;;;;;;;;;;;;;;10.62;97.08;101431.72;5033877;28;19917;-80
2023/01/01 11:24:19;;;;;;;;;;;;;;;10.61;96.98;101419.56;5017519;28;20295;-80
2023/01/01 11:26:44;;;;;;;;;;;;;;;10.62;97.15;101416.00;5015495;28;19921;-80
2023/01/01 11:29:16;;;;;;;;;;;;;;;10.62;97.65;101401.16;5032289;28;19964;-80
2023/01/01 11:31:45;;;;;;;;;;;;;;;10.63;98.09;101399.41;5032070;28;19925;-80
2023/01/01 11:34:20;;;;;;;;;;;;;;;10.62;97.76;101409.00;5022154;28;20016;-80
2023/01/01 11:36:45;;;;;;;;;;;;;;;10.64;97.84;101412.47;5020664;28;19921;-80
2023/01/01 11:39:25;;;;;;;;;;;;;;;10.64;97.78;101414.19;5026043;28;19956;-80
2023/01/01 11:41:52;;;;;;;;;;;;;;;10.65;97.89;101415.94;5020255;28;19928;-80
2023/01/01 11:44:29;;;;;;;;;;;;;;;10.64;98.18;101412.47;5026036;28;20202;-80
2023/01/01 11:46:54;;;;;;;;;;;;;;;10.67;98.61;101424.59;5033634;28;19917;-80
2023/01/01 11:49:22;;;;;;;;;;;;;;;10.65;98.66;101429.03;5031679;28;19960;-80
2023/01/01 11:51:48;;;;;;;;;;;;;;;10.65;98.79;101435.09;5026378;28;19921;-80
2023/01/01 11:54:34;;;;;;;;;;;;;;;10.65;98.97;101431.66;5038545;28;19943;-80
2023/01/01 11:57:05;;;;;;;;;;;;;;;10.65;98.78;101437.72;5038002;28;19917;-80
2023/01/01 11:59:51;;;;;;;;;;;;;;;10.65;98.69;101440.34;5038157;28;20228;-80
2023/01/01 12:02:36;;;;;;;;;;;;;;;10.66;98.92;101428.97;5037882;28;19980;-80
2023/01/01 12:05:22;;;;;;;;;;;;;;;10.66;98.09;101434.22;5036767;28;20272;-80
2023/01/01 12:07:47;;;;;;;;;;;;;;;10.66;98.16;101426.38;5037670;28;19917;-80
2023/01/01 12:10:24;;;;;;;;;;;;;;;10.66;97.68;101420.25;5034566;28;20196;-80
2023/01/01 12:12:50;;;;;;;;;;;;;;;10.67;98.10;101427.22;5034890;28;19941;-80
2023/01/01 12:15:42;;;;;;;;;;;;;;;10.68;98.04;101415.84;5035498;28;19921;-80
2023/01/01 12:18:14;;;;;;;;;;;;;;;10.67;97.21;101416.72;5004862;28;19932;-80
2023/01/01 12:21:12;;;;;;;;;;;;;;;10.67;97.38;101420.19;5034128;28;19927;-80
2023/01/01 12:23:38;;;;;;;;;;;;;;;10.67;96.01;101417.56;5011509;28;19928;-80
2023/01/01 12:26:22;;;;;;;;;;;;;;;10.68;95.68;101414.06;5013156;28;20113;-80
2023/01/01 12:29:06;;;;;;;;;;;;;;;10.70;94.73;101421.88;5025917;28;19918;-80
2023/01/01 12:31:43;;;;;;;;;;;;;;;10.71;96.12;101403.50;5016052;28;19968;-80
2023/01/01 12:34:08;;;;;;;;;;;;;;;10.71;95.43;101410.47;5015697;28;19940;-80
2023/01/01 12:36:46;;;;;;;;;;;;;;;10.72;95.93;101402.56;5015321;28;19925;-80
2023/01/01 12:39:17;;;;;;;;;;;;;;;10.72;95.98;101399.97;5017246;28;20471;-80
2023/01/01 12:42:05;;;;;;;;;;;;;;;10.73;95.19;101406.03;5016959;28;19952;-80
2023/01/01 12:44:39;;;;;;;;;;;;;;;10.73;94.29;101411.28;5009046;28;19944;-80